createdAt,value
2019-03-11T00:00:35.120Z,100182.25
2019-03-11T00:03:04.082Z,100188.69
2019-03-11T00:05:32.700Z,100190.91
2019-03-11T00:08:01.305Z,100195.84
2019-03-11T00:10:29.878Z,100196.57
2019-03-11T00:12:58.585Z,100200.97
2019-03-11T00:15:27.158Z,100203.73
2019-03-11T00:17:56.034Z,100213.70
2019-03-11T00:20:24.627Z,100222.45
2019-03-11T00:22:53.504Z,100222.49
2019-03-11T00:25:22.166Z,100228.02
2019-03-11T00:27:50.678Z,100218.23
2019-03-11T00:30:19.266Z,100238.45
2019-03-11T00:32:47.747Z,100232.56
2019-03-11T00:35:16.328Z,100236.08
2019-03-11T00:37:44.875Z,100234.39
2019-03-11T00:40:14.853Z,100228.48
2019-03-11T00:42:43.361Z,100240.92
2019-03-11T00:45:14.068Z,100245.03
2019-03-11T00:47:42.565Z,100245.86
2019-03-11T00:50:12.834Z,100251.52
2019-03-11T00:52:41.730Z,100255.23
2019-03-11T00:55:14.015Z,100262.34
2019-03-11T00:57:42.783Z,100268.25
2019-03-11T01:00:35.455Z,100278.55
2019-03-11T01:03:03.946Z,100265.95
2019-03-11T01:05:32.490Z,100271.81
2019-03-11T01:08:01.064Z,100278.14
2019-03-11T01:10:29.595Z,100270.95
2019-03-11T01:12:58.240Z,100274.06
2019-03-11T01:15:26.912Z,100281.53
2019-03-11T01:17:55.506Z,100275.34
2019-03-11T01:20:24.014Z,100282.12
2019-03-11T01:22:52.682Z,100283.53
2019-03-11T01:25:21.322Z,100284.59
2019-03-11T01:27:49.943Z,100215.52
2019-03-11T01:30:18.820Z,100280.77
2019-03-11T01:32:47.414Z,100292.89
2019-03-11T01:35:16.092Z,100283.36
2019-03-11T01:37:45.180Z,100285.17
2019-03-11T01:40:15.223Z,100272.75
2019-03-11T01:42:43.764Z,100275.17
2019-03-11T01:45:14.642Z,100277.70
2019-03-11T01:47:43.224Z,100276.98
2019-03-11T01:50:13.862Z,100272.98
2019-03-11T01:52:42.425Z,100271.40
2019-03-11T01:55:13.071Z,100272.56
2019-03-11T01:57:41.587Z,100269.22
2019-03-11T02:00:18.677Z,100270.48
2019-03-11T02:02:47.378Z,100267.63
2019-03-11T02:05:15.917Z,100269.72
2019-03-11T02:07:44.701Z,100278.02
2019-03-11T02:10:19.957Z,100275.75
2019-03-11T02:12:48.470Z,100262.77
2019-03-11T02:15:18.346Z,100278.00
2019-03-11T02:17:46.978Z,100283.55
2019-03-11T02:20:17.576Z,100276.83
2019-03-11T02:22:46.102Z,100282.28
2019-03-11T02:25:15.543Z,100276.52
2019-03-11T02:27:44.096Z,100272.50
2019-03-11T02:30:17.042Z,100280.50
2019-03-11T02:32:45.734Z,100273.14
2019-03-11T02:35:16.160Z,100271.25
2019-03-11T02:37:44.741Z,100274.73
2019-03-11T02:40:14.614Z,100275.07
2019-03-11T02:42:43.189Z,100281.25
2019-03-11T02:45:12.330Z,100283.52
2019-03-11T02:47:41.005Z,100281.25
2019-03-11T02:50:10.822Z,100270.36
2019-03-11T02:52:39.401Z,100277.48
2019-03-11T02:55:08.425Z,100272.62
2019-03-11T02:57:37.070Z,100274.55
2019-03-11T03:00:09.183Z,100267.73
2019-03-11T03:02:39.447Z,100265.52
2019-03-11T03:05:13.755Z,100261.30
2019-03-11T03:07:42.306Z,100262.45
2019-03-11T03:10:11.764Z,100265.42
2019-03-11T03:12:40.296Z,100267.13
2019-03-11T03:15:10.080Z,100269.12
2019-03-11T03:17:38.718Z,100267.80
2019-03-11T03:20:10.418Z,100264.17
2019-03-11T03:22:39.232Z,100258.74
2019-03-11T03:25:09.982Z,100262.41
2019-03-11T03:27:38.737Z,100262.88
2019-03-11T03:30:13.606Z,100258.45
2019-03-11T03:32:42.239Z,100256.16
2019-03-11T03:35:11.239Z,100256.75
2019-03-11T03:37:39.781Z,100249.69
2019-03-11T03:40:11.307Z,100249.05
2019-03-11T03:42:39.965Z,100245.92
2019-03-11T03:45:38.826Z,100244.16
2019-03-11T03:48:07.755Z,100246.57
2019-03-11T03:50:38.230Z,100248.22
2019-03-11T03:53:07.644Z,100252.23
2019-03-11T03:55:36.200Z,100240.80
2019-03-11T03:58:04.878Z,100239.16
2019-03-11T04:00:33.550Z,100237.92
2019-03-11T04:03:02.184Z,100237.58
2019-03-11T04:05:30.779Z,100236.39
2019-03-11T04:07:59.502Z,100238.16
2019-03-11T04:10:28.049Z,100238.80
2019-03-11T04:12:56.637Z,100237.50
2019-03-11T04:15:25.198Z,100238.70
2019-03-11T04:17:54.025Z,100234.58
2019-03-11T04:20:24.857Z,100239.23
2019-03-11T04:22:53.676Z,100232.63
2019-03-11T04:25:22.184Z,100231.09
2019-03-11T04:27:50.873Z,100233.63
2019-03-11T04:30:27.547Z,100238.56
2019-03-11T04:32:56.055Z,100232.45
2019-03-11T04:35:24.707Z,100232.75
2019-03-11T04:37:53.594Z,100227.86
2019-03-11T04:40:22.140Z,100236.87
2019-03-11T04:42:50.750Z,100229.57
2019-03-11T04:45:19.258Z,100234.50
2019-03-11T04:47:47.886Z,100232.03
2019-03-11T04:50:18.633Z,100234.70
2019-03-11T04:52:47.228Z,100245.04
2019-03-11T04:55:16.758Z,100237.52
2019-03-11T04:57:50.904Z,100242.41
2019-03-11T05:00:22.588Z,100239.75
2019-03-11T05:02:51.089Z,100242.14
2019-03-11T05:05:19.678Z,100233.52
2019-03-11T05:07:48.200Z,100241.20
2019-03-11T05:10:17.142Z,100241.78
2019-03-11T05:12:45.819Z,100240.84
2019-03-11T05:15:14.718Z,100244.86
2019-03-11T05:17:43.799Z,100244.26
2019-03-11T05:20:16.462Z,100242.38
2019-03-11T05:22:45.012Z,100244.91
2019-03-11T05:25:14.528Z,100239.23
2019-03-11T05:27:43.102Z,100242.81
2019-03-11T05:30:20.454Z,100239.34
2019-03-11T05:32:49.336Z,100233.34
2019-03-11T05:35:17.900Z,100237.64
2019-03-11T05:37:46.449Z,100234.98
2019-03-11T05:40:19.332Z,100232.41
2019-03-11T05:42:47.916Z,100225.64
2019-03-11T05:45:17.744Z,100230.92
2019-03-11T05:47:46.297Z,100234.40
2019-03-11T05:50:18.746Z,100229.52
2019-03-11T05:52:47.530Z,100232.70
2019-03-11T05:55:16.286Z,100239.72
2019-03-11T05:57:45.413Z,100235.98
2019-03-11T06:00:19.001Z,100243.11
2019-03-11T06:02:47.581Z,100238.47
2019-03-11T06:05:16.161Z,100244.95
2019-03-11T06:07:44.707Z,100242.77
2019-03-11T06:10:14.814Z,100251.63
2019-03-11T06:12:43.379Z,100247.80
2019-03-11T06:15:15.697Z,100260.05
2019-03-11T06:17:44.485Z,100250.80
2019-03-11T06:20:31.582Z,100247.85
2019-03-11T06:23:01.535Z,100254.57
2019-03-11T06:25:30.057Z,100248.66
2019-03-11T06:27:58.661Z,100249.29
2019-03-11T06:30:27.222Z,100253.35
2019-03-11T06:32:55.813Z,100245.62
2019-03-11T06:35:24.389Z,100241.13
2019-03-11T06:37:52.982Z,100242.61
2019-03-11T06:40:21.554Z,100248.61
2019-03-11T06:42:50.194Z,100246.87
2019-03-11T06:45:18.740Z,100251.51
2019-03-11T06:47:47.413Z,100246.05
2019-03-11T06:50:16.280Z,100250.22
2019-03-11T06:52:44.804Z,100250.02
2019-03-11T06:55:13.647Z,100249.97
2019-03-11T06:57:42.426Z,100243.89
2019-03-11T07:00:21.923Z,100244.95
2019-03-11T07:02:50.658Z,100248.05
2019-03-11T07:05:20.938Z,100244.84
2019-03-11T07:07:49.485Z,100243.94
2019-03-11T07:10:18.092Z,100245.62
2019-03-11T07:12:46.735Z,100249.63
2019-03-11T07:15:16.296Z,100243.49
2019-03-11T07:17:45.382Z,100252.00
2019-03-11T07:20:16.297Z,100254.97
2019-03-11T07:22:44.905Z,100258.14
2019-03-11T07:25:13.917Z,100252.77
2019-03-11T07:27:42.559Z,100264.01
2019-03-11T07:30:21.281Z,100265.61
2019-03-11T07:32:49.796Z,100268.86
2019-03-11T07:35:18.379Z,100271.94
2019-03-11T07:37:46.933Z,100271.29
2019-03-11T07:40:28.572Z,100275.11
2019-03-11T07:42:46.975Z,100270.59
2019-03-11T07:45:16.713Z,100275.80
2019-03-11T07:47:45.364Z,100274.28
2019-03-11T07:50:15.907Z,100273.16
2019-03-11T07:52:44.706Z,100289.31
2019-03-11T07:55:14.095Z,100288.96
2019-03-11T07:57:42.692Z,100279.90
2019-03-11T08:00:16.628Z,100285.58
2019-03-11T08:02:45.227Z,100283.43
2019-03-11T08:05:13.984Z,100280.44
2019-03-11T08:07:43.354Z,100282.17
2019-03-11T08:10:14.732Z,100282.17
2019-03-11T08:12:43.365Z,100284.10
2019-03-11T08:15:14.045Z,100292.78
2019-03-11T08:17:42.595Z,100284.95
2019-03-11T08:20:15.348Z,100291.14
2019-03-11T08:22:43.951Z,100297.42
2019-03-11T08:25:16.137Z,100301.55
2019-03-11T08:27:45.227Z,100299.66
2019-03-11T08:30:21.930Z,100301.59
2019-03-11T08:32:51.658Z,100302.09
2019-03-11T08:35:20.414Z,100300.42
2019-03-11T08:37:48.969Z,100300.98
2019-03-11T08:40:21.732Z,100296.95
2019-03-11T08:42:50.453Z,100296.38
2019-03-11T08:45:19.793Z,100309.16
2019-03-11T08:47:48.524Z,100311.34
2019-03-11T08:50:17.509Z,100307.42
2019-03-11T08:52:46.121Z,100311.05
2019-03-11T08:55:15.902Z,100304.48
2019-03-11T08:57:44.495Z,100307.23
2019-03-11T09:00:20.902Z,100306.95
2019-03-11T09:02:49.775Z,100308.84
2019-03-11T09:05:19.106Z,100305.34
2019-03-11T09:07:47.735Z,100307.92
2019-03-11T09:10:17.484Z,100307.84
2019-03-11T09:12:46.999Z,100308.72
2019-03-11T09:15:21.337Z,100313.91
2019-03-11T09:17:49.908Z,100320.45
2019-03-11T09:20:19.166Z,100319.88
2019-03-11T09:22:47.769Z,100316.27
2019-03-11T09:25:27.651Z,100315.88
2019-03-11T09:27:56.171Z,100326.90
2019-03-11T09:30:26.866Z,100322.91
2019-03-11T09:32:55.804Z,100322.52
2019-03-11T09:35:24.482Z,100317.17
2019-03-11T09:37:53.074Z,100319.41
2019-03-11T09:40:22.782Z,100320.31
2019-03-11T09:42:51.380Z,100317.91
2019-03-11T09:45:20.303Z,100317.38
2019-03-11T09:47:49.838Z,100322.51
2019-03-11T09:50:18.928Z,100321.81
2019-03-11T09:52:47.606Z,100320.66
2019-03-11T09:55:18.551Z,100320.11
2019-03-11T09:57:47.185Z,100323.52
2019-03-11T10:00:21.891Z,100318.67
2019-03-11T10:02:52.835Z,100317.56
2019-03-11T10:05:21.036Z,100314.52
2019-03-11T10:07:49.720Z,100322.91
2019-03-11T10:10:22.915Z,100315.91
2019-03-11T10:12:51.482Z,100311.57
2019-03-11T10:15:21.105Z,100326.84
2019-03-11T10:17:49.769Z,100326.25
2019-03-11T10:20:19.474Z,100311.27
2019-03-11T10:22:48.534Z,100318.86
2019-03-11T10:25:18.151Z,100327.52
2019-03-11T10:27:47.086Z,100323.95
2019-03-11T10:30:22.997Z,100332.13
2019-03-11T10:32:51.647Z,100329.12
2019-03-11T10:35:36.597Z,100331.06
2019-03-11T10:37:51.549Z,100332.69
2019-03-11T10:40:30.983Z,100325.10
2019-03-11T10:42:59.681Z,100325.16
2019-03-11T10:45:31.709Z,100334.42
2019-03-11T10:47:58.795Z,100337.46
2019-03-11T10:50:27.657Z,100336.55
2019-03-11T10:52:56.225Z,100342.37
2019-03-11T10:55:25.973Z,100325.27
2019-03-11T10:57:54.897Z,100332.93
2019-03-11T11:00:33.484Z,100326.05
2019-03-11T11:03:02.634Z,100318.91
2019-03-11T11:05:31.247Z,100314.25
2019-03-11T11:07:59.939Z,100312.41
2019-03-11T11:10:28.728Z,100320.05
2019-03-11T11:12:57.318Z,100317.84
2019-03-11T11:15:26.729Z,100323.80
2019-03-11T11:17:55.553Z,100327.88
2019-03-11T11:20:24.480Z,100332.52
2019-03-11T11:22:54.010Z,100340.67
2019-03-11T11:25:27.607Z,100317.01
2019-03-11T11:27:56.248Z,100339.65
2019-03-11T11:30:30.135Z,100340.10
2019-03-11T11:32:58.595Z,100347.99
2019-03-11T11:35:27.065Z,100344.97
2019-03-11T11:37:55.587Z,100345.71
2019-03-11T11:40:26.040Z,100351.34
2019-03-11T11:42:54.892Z,100364.41
2019-03-11T11:45:28.500Z,100364.73
2019-03-11T11:47:57.635Z,100376.63
2019-03-11T11:50:26.464Z,100368.89
2019-03-11T11:52:55.112Z,100380.87
2019-03-11T11:55:24.137Z,100365.28
2019-03-11T11:57:52.951Z,100365.38
2019-03-11T12:00:24.352Z,100382.67
2019-03-11T12:02:53.710Z,100372.74
2019-03-11T12:05:22.481Z,100378.27
2019-03-11T12:07:51.234Z,100374.31
2019-03-11T12:10:24.748Z,100375.89
2019-03-11T12:12:53.388Z,100384.85
2019-03-11T12:15:21.963Z,100371.10
2019-03-11T12:17:50.444Z,100377.56
2019-03-11T12:20:23.839Z,100375.09
2019-03-11T12:22:52.486Z,100382.63
2019-03-11T12:25:21.062Z,100382.85
2019-03-11T12:27:54.056Z,100371.42
2019-03-11T12:30:29.522Z,100371.70
2019-03-11T12:32:58.841Z,100371.01
2019-03-11T12:35:27.861Z,100372.11
2019-03-11T12:37:57.710Z,100375.39
2019-03-11T12:40:26.167Z,100380.06
2019-03-11T12:42:55.162Z,100376.09
2019-03-11T12:45:25.844Z,100370.62
2019-03-11T12:47:54.652Z,100370.06
2019-03-11T12:50:26.902Z,100370.45
2019-03-11T12:52:55.413Z,100373.79
2019-03-11T12:55:23.969Z,100365.59
2019-03-11T12:57:52.519Z,100378.05
2019-03-11T13:00:23.111Z,100377.55
2019-03-11T13:02:52.255Z,100377.58
2019-03-11T13:05:20.883Z,100381.61
2019-03-11T13:07:49.775Z,100377.59
2019-03-11T13:10:26.972Z,100393.58
2019-03-11T13:12:55.529Z,100393.02
2019-03-11T13:15:24.145Z,100390.14
2019-03-11T13:17:52.616Z,100404.36
2019-03-11T13:20:32.185Z,100392.19
2019-03-11T13:23:01.215Z,100397.61
2019-03-11T13:25:29.708Z,100394.80
2019-03-11T13:27:58.636Z,100401.69
2019-03-11T13:30:27.311Z,100402.55
2019-03-11T13:32:55.980Z,100404.19
2019-03-11T13:35:24.796Z,100405.55
2019-03-11T13:37:53.992Z,100416.70
2019-03-11T13:40:22.458Z,100421.05
2019-03-11T13:42:51.428Z,100428.39
2019-03-11T13:45:20.156Z,100431.91
2019-03-11T13:47:48.822Z,100422.15
2019-03-11T13:50:18.657Z,100427.88
2019-03-11T13:52:47.687Z,100426.77
2019-03-11T13:55:17.486Z,100432.22
2019-03-11T13:57:46.288Z,100425.66
2019-03-11T14:00:18.310Z,100423.75
2019-03-11T14:02:46.985Z,100429.45
2019-03-11T14:05:16.022Z,100428.96
2019-03-11T14:07:44.695Z,100438.75
2019-03-11T14:10:15.289Z,100449.09
2019-03-11T14:12:44.175Z,100443.91
2019-03-11T14:15:17.868Z,100462.45
2019-03-11T14:17:46.509Z,100455.64
2019-03-11T14:20:16.184Z,100464.09
2019-03-11T14:22:44.779Z,100461.38
2019-03-11T14:25:14.111Z,100459.96
2019-03-11T14:27:43.087Z,100461.37
2019-03-11T14:30:18.845Z,100460.54
2019-03-11T14:32:47.470Z,100461.09
2019-03-11T14:35:16.146Z,100462.45
2019-03-11T14:37:46.027Z,100468.95
2019-03-11T14:40:16.964Z,100461.36
2019-03-11T14:42:45.815Z,100472.80
2019-03-11T14:45:19.628Z,100470.08
2019-03-11T14:47:48.277Z,100467.64
2019-03-11T14:50:18.032Z,100465.99
2019-03-11T14:52:47.189Z,100465.19
2019-03-11T14:55:16.057Z,100473.36
2019-03-11T14:57:44.671Z,100478.50
2019-03-11T15:00:20.484Z,100473.49
2019-03-11T15:02:49.699Z,100471.69
2019-03-11T15:05:19.259Z,100477.66
2019-03-11T15:07:48.208Z,100475.53
2019-03-11T15:10:20.377Z,100479.33
2019-03-11T15:12:49.407Z,100484.77
2019-03-11T15:15:24.651Z,100486.42
2019-03-11T15:17:53.657Z,100491.06
2019-03-11T15:20:22.396Z,100483.69
2019-03-11T15:22:51.483Z,100494.88
2019-03-11T15:25:20.004Z,100480.44
2019-03-11T15:27:49.066Z,100499.27
2019-03-11T15:30:19.232Z,100499.80
2019-03-11T15:32:48.483Z,100511.24
2019-03-11T15:35:17.501Z,100511.52
2019-03-11T15:37:46.485Z,100512.31
2019-03-11T15:40:17.018Z,100523.79
2019-03-11T15:42:46.146Z,100527.32
2019-03-11T15:45:19.326Z,100529.72
2019-03-11T15:47:48.193Z,100521.02
2019-03-11T15:50:20.156Z,100531.59
2019-03-11T15:52:48.759Z,100540.69
2019-03-11T15:55:17.931Z,100537.62
2019-03-11T15:57:46.943Z,100546.06
2019-03-11T16:00:18.187Z,100546.13
2019-03-11T16:03:04.539Z,100547.75
2019-03-11T16:05:33.036Z,100543.91
2019-03-11T16:08:01.477Z,100544.14
2019-03-11T16:10:30.299Z,100543.27
2019-03-11T16:12:59.251Z,100550.61
2019-03-11T16:15:27.820Z,100552.81
2019-03-11T16:17:56.407Z,100550.89
2019-03-11T16:20:26.763Z,100558.25
2019-03-11T16:22:55.747Z,100565.34
2019-03-11T16:25:24.450Z,100563.23
2019-03-11T16:27:53.151Z,100570.03
2019-03-11T16:30:23.377Z,100576.02
2019-03-11T16:32:59.415Z,100575.98
2019-03-11T16:35:24.218Z,100585.23
2019-03-11T16:37:52.948Z,100588.56
2019-03-11T16:40:21.906Z,100591.18
2019-03-11T16:42:50.730Z,100593.14
2019-03-11T16:45:20.869Z,100596.96
2019-03-11T16:47:49.628Z,100598.77
2019-03-11T16:50:20.641Z,100595.13
2019-03-11T16:52:49.715Z,100606.77
2019-03-11T16:55:23.124Z,100615.06
2019-03-11T16:57:53.678Z,100616.92
2019-03-11T17:00:25.627Z,100612.41
2019-03-11T17:02:54.622Z,100616.48
2019-03-11T17:05:23.209Z,100619.61
2019-03-11T17:07:53.982Z,100624.08
2019-03-11T17:10:23.219Z,100626.48
2019-03-11T17:12:52.354Z,100625.62
2019-03-11T17:15:20.881Z,100630.59
2019-03-11T17:17:49.469Z,100636.86
2019-03-11T17:20:19.253Z,100647.48
2019-03-11T17:22:47.865Z,100651.81
2019-03-11T17:25:16.667Z,100648.91
2019-03-11T17:27:45.338Z,100650.72
2019-03-11T17:30:26.051Z,100650.48
2019-03-11T17:32:54.759Z,100648.30
2019-03-11T17:35:23.398Z,100659.20
2019-03-11T17:37:53.216Z,100664.41
2019-03-11T17:40:23.663Z,100668.11
2019-03-11T17:42:52.877Z,100671.66
2019-03-11T17:45:22.016Z,100675.67
2019-03-11T17:47:50.941Z,100678.44
2019-03-11T17:50:21.021Z,100688.34
2019-03-11T17:52:49.903Z,100691.27
2019-03-11T17:55:19.501Z,100694.63
2019-03-11T17:57:48.425Z,100700.90
2019-03-11T18:00:29.002Z,100704.70
2019-03-11T18:02:58.031Z,100711.20
2019-03-11T18:05:27.001Z,100715.89
2019-03-11T18:07:56.117Z,100717.26
2019-03-11T18:10:24.700Z,100719.20
2019-03-11T18:12:53.506Z,100719.07
2019-03-11T18:15:22.179Z,100724.60
2019-03-11T18:17:50.938Z,100732.22
2019-03-11T18:20:20.648Z,100732.75
2019-03-11T18:22:51.816Z,100730.91
2019-03-11T18:25:21.272Z,100748.10
2019-03-11T18:27:49.858Z,100748.06
2019-03-11T18:30:20.739Z,100753.92
2019-03-11T18:32:49.451Z,100757.58
2019-03-11T18:35:18.595Z,100772.57
2019-03-11T18:37:47.221Z,100778.16
2019-03-11T18:40:18.130Z,100785.19
2019-03-11T18:42:47.152Z,100790.73
2019-03-11T18:45:17.463Z,100791.35
2019-03-11T18:47:46.243Z,100790.17
2019-03-11T18:50:19.935Z,100796.55
2019-03-11T18:52:48.637Z,100799.73
2019-03-11T18:55:17.315Z,100800.03
2019-03-11T18:57:46.308Z,100804.73
2019-03-11T19:00:18.932Z,100819.58
2019-03-11T19:02:47.813Z,100822.52
2019-03-11T19:05:24.322Z,100830.67
2019-03-11T19:07:55.067Z,100836.88
2019-03-11T19:10:24.235Z,100836.09
2019-03-11T19:12:53.056Z,100850.91
2019-03-11T19:15:25.524Z,100846.41
2019-03-11T19:17:54.178Z,100846.26
2019-03-11T19:20:23.806Z,100851.54
2019-03-11T19:22:56.714Z,100858.67
2019-03-11T19:25:25.435Z,100860.50
2019-03-11T19:27:55.253Z,100870.52
2019-03-11T19:30:28.342Z,100864.74
2019-03-11T19:32:57.932Z,100869.72
2019-03-11T19:35:26.978Z,100876.27
2019-03-11T19:37:56.085Z,100880.78
2019-03-11T19:40:27.240Z,100886.98
2019-03-11T19:42:56.070Z,100887.61
2019-03-11T19:45:24.860Z,100887.81
2019-03-11T19:47:54.169Z,100895.78
2019-03-11T19:50:24.036Z,100913.30
2019-03-11T19:52:58.500Z,100910.77
2019-03-11T19:55:23.036Z,100914.83
2019-03-11T19:57:51.608Z,100925.33
2019-03-11T20:00:22.025Z,100925.80
2019-03-11T20:02:51.649Z,100925.87
2019-03-11T20:05:29.038Z,100924.44
2019-03-11T20:07:57.951Z,100921.58
2019-03-11T20:10:26.652Z,100920.88
2019-03-11T20:12:55.364Z,100922.36
2019-03-11T20:15:23.994Z,100925.67
2019-03-11T20:17:53.112Z,100928.17
2019-03-11T20:20:22.071Z,100927.75
2019-03-11T20:22:51.616Z,100928.52
2019-03-11T20:25:37.481Z,100930.34
2019-03-11T20:28:06.147Z,100930.54
2019-03-11T20:30:34.997Z,100943.06
2019-03-11T20:33:04.159Z,100948.58
2019-03-11T20:35:33.259Z,100957.31
2019-03-11T20:38:02.508Z,100956.33
2019-03-11T20:40:31.075Z,100964.41
2019-03-11T20:42:59.811Z,100969.22
2019-03-11T20:45:28.447Z,100974.02
2019-03-11T20:47:57.011Z,100974.97
2019-03-11T20:50:25.627Z,100976.81
2019-03-11T20:52:54.581Z,100989.44
2019-03-11T20:55:23.369Z,100989.41
2019-03-11T20:57:52.187Z,100993.10
2019-03-11T21:00:21.851Z,100999.86
2019-03-11T21:02:50.944Z,101008.72
2019-03-11T21:05:35.696Z,101013.67
2019-03-11T21:08:04.983Z,101014.86
2019-03-11T21:10:33.625Z,101028.13
2019-03-11T21:13:02.356Z,101027.92
2019-03-11T21:15:30.948Z,101026.38
2019-03-11T21:17:59.900Z,101030.45
2019-03-11T21:20:28.530Z,101037.52
2019-03-11T21:22:57.249Z,101044.89
2019-03-11T21:25:26.109Z,101054.86
2019-03-11T21:27:54.738Z,101053.54
2019-03-11T21:30:25.011Z,101047.61
2019-03-11T21:32:54.371Z,101051.89
2019-03-11T21:35:24.078Z,101066.05
2019-03-11T21:37:52.826Z,101068.47
2019-03-11T21:40:22.906Z,101068.50
2019-03-11T21:42:51.867Z,101071.51
2019-03-11T21:45:33.361Z,101070.72
2019-03-11T21:47:53.101Z,101066.39
2019-03-11T21:50:25.985Z,101064.70
2019-03-11T21:52:54.751Z,101077.13
2019-03-11T21:55:23.893Z,101078.74
2019-03-11T21:57:52.832Z,101082.96
2019-03-11T22:00:34.550Z,101092.79
2019-03-11T22:02:56.722Z,101093.95
2019-03-11T22:05:27.859Z,101103.94
2019-03-11T22:07:56.403Z,101108.83
2019-03-11T22:10:25.422Z,101108.69
2019-03-11T22:12:53.981Z,101118.89
2019-03-11T22:15:24.308Z,101122.31
2019-03-11T22:17:52.903Z,101126.27
2019-03-11T22:20:21.759Z,101131.57
2019-03-11T22:22:50.532Z,101133.64
2019-03-11T22:25:21.080Z,101131.23
2019-03-11T22:27:49.671Z,101145.89
2019-03-11T22:30:24.232Z,101146.84
2019-03-11T22:32:52.981Z,101150.06
2019-03-11T22:35:21.656Z,101162.78
2019-03-11T22:37:50.446Z,101163.66
2019-03-11T22:40:20.009Z,101170.05
2019-03-11T22:42:48.553Z,101175.42
2019-03-11T22:45:21.566Z,101180.75
2019-03-11T22:47:51.378Z,101182.94
2019-03-11T22:50:20.462Z,101188.23
2019-03-11T22:52:49.173Z,101200.38
2019-03-11T22:55:19.477Z,101207.70
2019-03-11T22:57:48.313Z,101211.52
2019-03-11T23:00:20.694Z,101213.92
2019-03-11T23:02:49.644Z,101219.75
2019-03-11T23:05:18.202Z,101218.02
2019-03-11T23:07:46.892Z,101222.10
2019-03-11T23:10:15.456Z,101218.79
2019-03-11T23:12:44.071Z,101230.06
2019-03-11T23:15:12.793Z,101237.37
2019-03-11T23:17:41.346Z,101245.28
2019-03-11T23:20:10.095Z,101254.89
2019-03-11T23:22:38.701Z,101256.87
2019-03-11T23:25:08.400Z,101258.95
2019-03-11T23:27:37.011Z,101259.12
2019-03-11T23:30:08.761Z,101262.58
2019-03-11T23:32:38.095Z,101273.92
2019-03-11T23:35:07.475Z,101281.15
2019-03-11T23:37:36.030Z,101282.73
2019-03-11T23:40:06.453Z,101288.97
2019-03-11T23:42:35.029Z,101294.31
2019-03-11T23:45:05.100Z,101299.66
2019-03-11T23:47:33.622Z,101289.23
2019-03-11T23:50:02.133Z,101298.42
2019-03-11T23:52:30.683Z,101299.95
2019-03-11T23:54:59.301Z,101294.55
2019-03-11T23:57:27.867Z,101297.21
2019-03-11T23:59:56.464Z,101299.67
